createdAt,value
2018-05-24T00:01:30.957Z,99.90
2018-05-24T00:03:58.649Z,99.90
2018-05-24T00:06:26.181Z,99.90
2018-05-24T00:08:53.845Z,99.90
2018-05-24T00:11:21.545Z,99.90
2018-05-24T00:13:49.068Z,99.90
2018-05-24T00:16:16.788Z,99.90
2018-05-24T00:18:44.316Z,99.90
2018-05-24T00:21:12.669Z,99.90
2018-05-24T00:23:40.242Z,99.90
2018-05-24T00:26:07.916Z,99.90
2018-05-24T00:28:36.317Z,99.90
2018-05-24T00:31:03.909Z,99.90
2018-05-24T00:33:31.472Z,99.90
2018-05-24T00:35:59.200Z,99.90
2018-05-24T00:38:27.483Z,99.90
2018-05-24T00:40:55.251Z,99.90
2018-05-24T00:43:22.851Z,99.90
2018-05-24T00:45:50.481Z,99.90
2018-05-24T00:48:18.033Z,99.90
2018-05-24T00:50:45.625Z,99.90
2018-05-24T00:53:13.265Z,99.90
2018-05-24T00:55:41.528Z,99.90
2018-05-24T00:58:09.085Z,99.90
2018-05-24T01:00:36.613Z,99.90
2018-05-24T01:03:04.716Z,99.90
2018-05-24T01:05:32.249Z,99.90
2018-05-24T01:07:59.840Z,99.90
2018-05-24T01:10:27.397Z,99.90
2018-05-24T01:12:54.924Z,99.90
2018-05-24T01:15:22.543Z,99.90
2018-05-24T01:17:50.180Z,99.90
2018-05-24T01:20:17.741Z,99.90
2018-05-24T01:22:45.277Z,99.90
2018-05-24T01:25:12.913Z,99.90
2018-05-24T01:27:40.617Z,99.90
2018-05-24T01:30:08.313Z,99.90
2018-05-24T01:32:36.708Z,99.90
2018-05-24T01:35:04.417Z,99.90
2018-05-24T01:37:43.997Z,99.90
2018-05-24T01:40:12.322Z,99.90
2018-05-24T01:42:39.860Z,99.90
2018-05-24T01:45:07.977Z,99.90
2018-05-24T01:47:35.513Z,99.90
2018-05-24T01:50:03.617Z,99.90
2018-05-24T01:52:31.284Z,99.90
2018-05-24T01:54:58.953Z,99.90
2018-05-24T01:57:26.882Z,99.90
2018-05-24T01:59:54.461Z,99.90
2018-05-24T02:02:22.483Z,99.90
2018-05-24T02:04:50.518Z,99.90
2018-05-24T02:07:18.820Z,99.90
2018-05-24T02:09:46.821Z,99.90
2018-05-24T02:12:14.369Z,99.90
2018-05-24T02:14:41.908Z,99.90
2018-05-24T02:17:09.873Z,99.90
2018-05-24T02:19:37.396Z,99.90
2018-05-24T02:22:05.733Z,99.90
2018-05-24T02:24:33.276Z,99.90
2018-05-24T02:27:00.834Z,99.90
2018-05-24T02:29:29.128Z,99.90
2018-05-24T02:31:57.082Z,99.90
2018-05-24T02:34:24.612Z,99.90
2018-05-24T02:36:52.567Z,99.90
2018-05-24T02:39:20.877Z,99.90
2018-05-24T02:41:48.472Z,99.90
2018-05-24T02:44:16.180Z,99.90
2018-05-24T02:46:43.724Z,99.90
2018-05-24T02:49:12.097Z,99.90
2018-05-24T02:51:40.453Z,99.90
2018-05-24T02:54:09.501Z,99.90
2018-05-24T02:56:37.036Z,99.90
2018-05-24T02:59:05.341Z,99.90
2018-05-24T03:01:32.884Z,99.90
2018-05-24T03:04:00.499Z,99.90
2018-05-24T03:06:28.009Z,99.90
2018-05-24T03:08:56.329Z,99.90
2018-05-24T03:11:23.869Z,99.90
2018-05-24T03:13:51.425Z,99.90
2018-05-24T03:16:18.961Z,99.90
2018-05-24T03:18:46.517Z,99.90
2018-05-24T03:21:14.069Z,99.90
2018-05-24T03:23:41.633Z,99.90
2018-05-24T03:26:09.184Z,99.90
2018-05-24T03:28:36.753Z,99.90
2018-05-24T03:31:04.397Z,99.90
2018-05-24T03:33:31.941Z,99.90
2018-05-24T03:36:00.228Z,99.90
2018-05-24T03:38:27.937Z,99.90
2018-05-24T03:40:56.262Z,99.90
2018-05-24T03:43:23.792Z,99.90
2018-05-24T03:45:51.348Z,99.90
2018-05-24T03:48:18.992Z,99.90
2018-05-24T03:50:46.710Z,99.90
2018-05-24T03:53:14.232Z,99.90
2018-05-24T03:55:42.690Z,99.90
2018-05-24T03:58:10.354Z,99.90
2018-05-24T04:03:48.013Z,99.90
2018-05-24T04:06:15.614Z,99.90
2018-05-24T04:08:43.133Z,99.90
2018-05-24T04:11:10.785Z,99.90
2018-05-24T04:13:38.343Z,99.90
2018-05-24T04:16:06.022Z,99.90
2018-05-24T04:18:33.659Z,99.90
2018-05-24T04:21:01.948Z,99.90
2018-05-24T04:23:29.585Z,99.90
2018-05-24T04:25:57.989Z,99.90
2018-05-24T04:28:25.598Z,99.90
2018-05-24T04:30:53.203Z,99.90
2018-05-24T04:33:20.752Z,99.90
2018-05-24T04:35:48.425Z,99.90
2018-05-24T04:38:15.980Z,99.90
2018-05-24T04:40:43.625Z,99.90
2018-05-24T04:43:11.949Z,99.90
2018-05-24T04:45:39.480Z,99.90
2018-05-24T04:48:07.048Z,99.90
2018-05-24T04:50:34.573Z,99.90
2018-05-24T04:53:02.897Z,99.90
2018-05-24T04:55:30.472Z,99.90
2018-05-24T04:57:58.030Z,99.90
2018-05-24T05:00:25.578Z,99.90
2018-05-24T05:02:53.513Z,99.90
2018-05-24T05:05:21.066Z,99.90
2018-05-24T05:07:48.684Z,99.90
2018-05-24T05:10:16.314Z,99.90
2018-05-24T05:12:43.952Z,99.90
2018-05-24T05:15:12.265Z,99.90
2018-05-24T05:17:39.870Z,99.90
2018-05-24T05:20:07.345Z,99.90
2018-05-24T05:22:35.382Z,99.90
2018-05-24T05:25:03.704Z,99.90
2018-05-24T05:27:31.220Z,99.90
2018-05-24T05:29:59.546Z,99.90
2018-05-24T05:32:27.121Z,99.90
2018-05-24T05:34:54.762Z,99.90
2018-05-24T05:37:22.328Z,99.90
2018-05-24T05:39:49.925Z,99.90
2018-05-24T05:42:18.379Z,99.90
2018-05-24T05:44:45.934Z,99.90
2018-05-24T05:47:13.480Z,99.90
2018-05-24T05:49:41.008Z,99.90
2018-05-24T05:52:08.661Z,99.90
2018-05-24T05:54:36.210Z,99.90
2018-05-24T05:57:05.645Z,99.90
2018-05-24T05:59:33.380Z,99.90
2018-05-24T06:02:01.166Z,99.90
2018-05-24T06:04:28.605Z,99.90
2018-05-24T06:06:56.157Z,99.90
2018-05-24T06:09:24.668Z,99.90
2018-05-24T06:11:52.293Z,99.90
2018-05-24T06:14:20.761Z,99.90
2018-05-24T06:16:48.684Z,99.90
2018-05-24T06:19:16.261Z,99.90
2018-05-24T06:21:43.874Z,99.90
2018-05-24T06:24:11.358Z,99.90
2018-05-24T06:26:38.888Z,99.90
2018-05-24T06:29:07.213Z,99.90
2018-05-24T06:31:34.865Z,99.90
2018-05-24T06:34:02.438Z,99.90
2018-05-24T06:36:29.973Z,99.90
2018-05-24T06:38:57.556Z,99.90
2018-05-24T06:41:26.712Z,99.90
2018-05-24T06:43:55.396Z,99.90
2018-05-24T06:46:23.009Z,99.90
2018-05-24T06:48:50.891Z,99.90
2018-05-24T06:51:19.934Z,99.90
2018-05-24T06:53:47.509Z,99.90
2018-05-24T06:56:15.049Z,99.90
2018-05-24T06:58:42.695Z,99.90
2018-05-24T07:01:11.477Z,99.90
2018-05-24T07:03:39.351Z,99.90
2018-05-24T07:06:07.002Z,99.80
2018-05-24T07:08:34.581Z,99.90
2018-05-24T07:11:02.421Z,99.50
2018-05-24T07:13:29.849Z,99.90
2018-05-24T07:15:58.189Z,99.90
2018-05-24T07:18:25.832Z,99.90
2018-05-24T07:20:53.592Z,99.90
2018-05-24T07:23:21.158Z,98.80
2018-05-24T07:25:48.702Z,99.60
2018-05-24T07:28:16.307Z,99.80
2018-05-24T07:30:43.974Z,99.90
2018-05-24T07:33:11.905Z,99.90
2018-05-24T07:35:39.477Z,99.90
2018-05-24T07:38:07.137Z,99.90
2018-05-24T07:40:34.759Z,99.90
2018-05-24T07:43:02.308Z,99.90
2018-05-24T07:45:29.834Z,99.90
2018-05-24T07:47:57.405Z,99.90
2018-05-24T07:50:25.701Z,99.90
2018-05-24T07:52:53.236Z,98.50
2018-05-24T07:55:21.551Z,97.60
2018-05-24T07:57:49.505Z,94.00
2018-05-24T08:00:17.585Z,93.50
2018-05-24T08:02:45.109Z,94.40
2018-05-24T08:05:13.429Z,93.90
2018-05-24T08:07:41.007Z,93.00
2018-05-24T08:10:08.576Z,91.60
2018-05-24T08:12:36.156Z,93.20
2018-05-24T08:15:04.707Z,94.30
2018-05-24T08:17:32.229Z,94.00
2018-05-24T08:19:59.821Z,95.50
2018-05-24T08:22:27.407Z,94.40
2018-05-24T08:24:54.938Z,94.90
2018-05-24T08:27:22.513Z,93.20
2018-05-24T08:29:50.039Z,93.90
2018-05-24T08:32:18.364Z,92.00
2018-05-24T08:34:46.693Z,95.20
2018-05-24T08:37:14.353Z,93.50
2018-05-24T08:39:41.890Z,93.40
2018-05-24T08:42:10.200Z,94.60
2018-05-24T08:44:37.737Z,94.70
2018-05-24T08:47:05.357Z,95.30
2018-05-24T08:49:32.857Z,93.30
2018-05-24T08:52:01.177Z,94.00
2018-05-24T08:54:29.128Z,95.30
2018-05-24T08:56:56.686Z,93.20
2018-05-24T08:59:24.285Z,93.30
2018-05-24T09:01:52.292Z,93.40
2018-05-24T09:27:13.342Z,92.00
2018-05-24T09:29:40.890Z,94.40
2018-05-24T09:32:09.195Z,92.00
2018-05-24T09:34:36.757Z,91.90
2018-05-24T09:37:04.294Z,91.90
2018-05-24T09:39:31.957Z,90.80
2018-05-24T09:41:59.482Z,89.70
2018-05-24T09:44:27.113Z,92.10
2018-05-24T09:46:54.825Z,89.30
2018-05-24T09:49:23.275Z,90.70
2018-05-24T09:51:50.834Z,90.70
2018-05-24T09:54:18.451Z,91.20
2018-05-24T09:56:45.987Z,88.60
2018-05-24T09:59:13.668Z,88.30
2018-05-24T10:01:41.225Z,90.00
2018-05-24T10:04:08.760Z,91.00
2018-05-24T10:06:37.161Z,90.10
2018-05-24T10:09:04.686Z,90.00
2018-05-24T10:11:33.032Z,90.30
2018-05-24T10:14:00.655Z,90.30
2018-05-24T10:16:28.315Z,82.50
2018-05-24T10:18:55.872Z,82.10
2018-05-24T10:21:23.384Z,82.50
2018-05-24T10:23:51.740Z,82.00
2018-05-24T10:26:19.382Z,82.10
2018-05-24T10:28:47.137Z,84.50
2018-05-24T10:31:14.656Z,83.60
2018-05-24T10:33:42.994Z,76.30
2018-05-24T10:36:10.529Z,76.30
2018-05-24T10:38:38.241Z,76.80
2018-05-24T10:41:06.569Z,73.80
2018-05-24T10:43:34.140Z,73.80
2018-05-24T10:46:01.679Z,71.50
2018-05-24T10:48:29.326Z,72.00
2018-05-24T10:50:56.939Z,75.80
2018-05-24T10:53:25.180Z,75.40
2018-05-24T10:55:52.760Z,77.40
2018-05-24T10:58:20.271Z,77.70
2018-05-24T11:00:47.824Z,81.30
2018-05-24T11:03:15.382Z,85.30
2018-05-24T11:05:42.918Z,85.40
2018-05-24T11:08:11.313Z,85.10
2018-05-24T11:10:38.861Z,85.00
2018-05-24T11:13:07.176Z,85.70
2018-05-24T11:15:34.729Z,85.60
2018-05-24T11:18:02.392Z,87.50
2018-05-24T11:20:29.936Z,85.30
2018-05-24T11:22:57.606Z,85.30
2018-05-24T11:25:25.151Z,85.70
2018-05-24T11:27:52.714Z,82.20
2018-05-24T11:30:20.257Z,84.40
2018-05-24T11:32:47.940Z,84.50
2018-05-24T11:35:15.461Z,81.40
2018-05-24T11:37:43.850Z,82.10
2018-05-24T11:40:12.157Z,81.20
2018-05-24T11:42:39.706Z,81.10
2018-05-24T11:45:07.243Z,81.30
2018-05-24T11:47:35.760Z,85.10
2018-05-24T11:50:03.284Z,85.20
2018-05-24T11:52:30.880Z,81.60
2018-05-24T11:54:58.525Z,80.60
2018-05-24T11:57:26.033Z,79.80
2018-05-24T11:59:53.714Z,81.20
2018-05-24T12:02:22.189Z,78.30
2018-05-24T12:04:50.608Z,80.60
2018-05-24T12:07:18.149Z,80.50
2018-05-24T12:09:45.725Z,81.10
2018-05-24T12:12:13.256Z,81.40
2018-05-24T12:14:40.793Z,79.90
2018-05-24T12:17:09.210Z,80.20
2018-05-24T12:19:36.766Z,80.50
2018-05-24T12:22:04.256Z,75.00
2018-05-24T12:24:31.809Z,77.80
2018-05-24T12:26:59.356Z,78.60
2018-05-24T12:29:26.909Z,83.80
2018-05-24T12:31:54.454Z,83.30
2018-05-24T12:34:22.010Z,83.90
2018-05-24T12:36:49.686Z,84.00
2018-05-24T12:39:17.230Z,84.40
2018-05-24T12:41:44.808Z,84.00
2018-05-24T12:44:12.351Z,83.10
2018-05-24T12:46:39.916Z,83.70
2018-05-24T12:49:07.495Z,82.30
2018-05-24T12:51:35.031Z,80.70
2018-05-24T12:54:02.587Z,81.00
2018-05-24T12:56:30.202Z,79.50
2018-05-24T12:58:58.667Z,78.70
2018-05-24T13:01:26.203Z,78.80
2018-05-24T13:03:53.755Z,77.50
2018-05-24T13:06:21.276Z,79.00
2018-05-24T13:08:48.833Z,77.90
2018-05-24T13:11:16.449Z,79.60
2018-05-24T13:13:44.128Z,79.70
2018-05-24T13:16:12.617Z,78.90
2018-05-24T13:18:41.029Z,79.50
2018-05-24T13:21:08.708Z,79.50
2018-05-24T13:23:36.280Z,80.20
2018-05-24T13:26:03.888Z,79.90
2018-05-24T13:28:31.487Z,79.30
2018-05-24T13:30:59.170Z,79.80
2018-05-24T13:33:26.724Z,81.80
2018-05-24T13:35:54.476Z,88.90
2018-05-24T13:38:22.108Z,90.30
2018-05-24T13:40:49.647Z,90.10
2018-05-24T13:43:18.042Z,87.00
2018-05-24T13:45:45.727Z,87.00
2018-05-24T13:48:13.276Z,84.20
2018-05-24T13:50:40.950Z,83.90
2018-05-24T13:53:08.556Z,86.90
2018-05-24T13:55:36.242Z,87.20
2018-05-24T13:58:03.769Z,88.90
2018-05-24T14:00:32.314Z,92.00
2018-05-24T14:02:59.853Z,92.00
2018-05-24T14:05:27.436Z,91.50
2018-05-24T14:07:54.961Z,90.00
2018-05-24T14:10:22.509Z,90.30
2018-05-24T14:12:50.090Z,88.60
2018-05-24T14:15:17.659Z,88.00
2018-05-24T14:17:45.389Z,84.00
2018-05-24T14:20:12.892Z,85.40
2018-05-24T14:22:40.495Z,84.90
2018-05-24T14:25:08.156Z,84.40
2018-05-24T14:27:35.700Z,90.10
2018-05-24T14:30:04.184Z,90.90
2018-05-24T14:32:31.783Z,90.80
2018-05-24T14:34:59.376Z,91.30
2018-05-24T14:37:27.034Z,91.20
2018-05-24T14:39:54.575Z,91.10
2018-05-24T14:42:22.241Z,91.80
2018-05-24T14:44:49.883Z,93.00
2018-05-24T14:47:17.428Z,92.80
2018-05-24T14:49:44.954Z,92.20
2018-05-24T14:52:12.689Z,92.10
2018-05-24T14:54:40.228Z,91.70
2018-05-24T14:57:07.780Z,93.20
2018-05-24T14:59:35.347Z,92.10
2018-05-24T15:02:02.951Z,95.50
2018-05-24T15:04:30.550Z,93.60
2018-05-24T15:06:58.085Z,94.00
2018-05-24T15:09:25.693Z,91.50
2018-05-24T15:11:53.236Z,90.70
2018-05-24T15:14:20.793Z,93.30
2018-05-24T15:16:48.472Z,93.10
2018-05-24T15:19:16.020Z,91.30
2018-05-24T15:21:43.564Z,91.10
2018-05-24T15:24:11.270Z,91.20
2018-05-24T15:26:39.651Z,90.40
2018-05-24T15:29:07.986Z,90.40
2018-05-24T15:31:35.662Z,90.40
2018-05-24T15:34:03.189Z,92.20
2018-05-24T15:36:30.723Z,93.80
2018-05-24T15:38:58.254Z,94.00
2018-05-24T15:41:26.673Z,93.90
2018-05-24T15:43:54.224Z,93.90
2018-05-24T15:46:21.795Z,94.40
2018-05-24T15:48:49.327Z,94.30
2018-05-24T15:51:17.641Z,94.90
2018-05-24T15:53:45.165Z,94.90
2018-05-24T15:56:12.701Z,94.10
2018-05-24T15:58:41.113Z,95.50
2018-05-24T16:01:08.666Z,95.50
2018-05-24T16:03:36.207Z,97.30
2018-05-24T16:06:03.789Z,96.30
2018-05-24T16:08:31.321Z,98.00
2018-05-24T16:10:58.885Z,98.10
2018-05-24T16:13:26.555Z,99.90
2018-05-24T16:15:54.119Z,99.90
2018-05-24T16:18:21.675Z,99.90
2018-05-24T16:20:49.268Z,99.90
2018-05-24T16:23:16.895Z,99.90
2018-05-24T16:25:44.513Z,99.90
2018-05-24T16:28:12.085Z,99.90
2018-05-24T16:30:40.413Z,99.90
2018-05-24T16:33:08.017Z,99.90
2018-05-24T16:35:36.285Z,99.90
2018-05-24T16:38:04.782Z,99.90
2018-05-24T16:40:32.432Z,99.90
2018-05-24T16:43:00.841Z,99.90
2018-05-24T16:45:28.494Z,99.90
2018-05-24T16:47:56.059Z,99.90
2018-05-24T16:50:23.756Z,99.90
2018-05-24T16:52:51.288Z,99.90
2018-05-24T16:55:18.853Z,99.90
2018-05-24T16:57:46.568Z,99.90
2018-05-24T17:00:15.000Z,99.90
2018-05-24T17:02:42.529Z,99.90
2018-05-24T17:05:10.212Z,99.90
2018-05-24T17:07:37.746Z,99.90
2018-05-24T17:10:05.338Z,97.10
2018-05-24T17:12:33.021Z,97.40
2018-05-24T17:15:00.634Z,96.80
2018-05-24T17:17:28.249Z,95.60
2018-05-24T17:19:55.857Z,96.30
2018-05-24T17:22:23.399Z,97.50
2018-05-24T17:24:51.068Z,98.80
2018-05-24T17:27:18.602Z,98.20
2018-05-24T17:29:46.157Z,98.60
2018-05-24T17:32:14.567Z,99.90
2018-05-24T17:34:42.112Z,99.90
2018-05-24T17:37:09.713Z,99.60
2018-05-24T17:39:37.241Z,99.00
2018-05-24T17:42:04.781Z,98.30
2018-05-24T17:44:32.493Z,98.40
2018-05-24T17:47:00.217Z,97.40
2018-05-24T17:49:27.833Z,99.90
2018-05-24T17:51:55.405Z,98.60
2018-05-24T17:54:23.731Z,99.90
2018-05-24T17:56:51.337Z,99.90
2018-05-24T17:59:19.690Z,99.90
2018-05-24T18:01:47.293Z,99.90
2018-05-24T18:04:14.839Z,99.90
2018-05-24T18:06:43.237Z,99.90
2018-05-24T18:09:10.771Z,99.90
2018-05-24T18:11:39.105Z,99.90
2018-05-24T18:14:06.633Z,99.90
2018-05-24T18:16:34.390Z,99.90
2018-05-24T18:19:01.980Z,99.90
2018-05-24T18:21:29.457Z,99.90
2018-05-24T18:23:57.041Z,99.90
2018-05-24T18:26:25.335Z,99.90
2018-05-24T18:28:52.892Z,99.90
2018-05-24T18:31:20.442Z,99.90
2018-05-24T18:33:48.001Z,99.90
2018-05-24T18:36:15.634Z,99.90
2018-05-24T18:38:43.330Z,99.90
2018-05-24T18:41:10.988Z,99.90
2018-05-24T18:43:38.549Z,99.90
2018-05-24T18:46:06.075Z,99.90
2018-05-24T18:48:34.490Z,99.90
2018-05-24T18:51:02.118Z,99.90
2018-05-24T18:53:29.658Z,99.90
2018-05-24T18:55:57.321Z,99.90
2018-05-24T18:58:24.872Z,99.90
2018-05-24T19:00:52.565Z,99.90
2018-05-24T19:03:20.986Z,99.90
2018-05-24T19:05:48.747Z,99.90
2018-05-24T19:08:16.282Z,99.90
2018-05-24T19:10:43.824Z,99.90
2018-05-24T19:13:12.189Z,99.90
2018-05-24T19:15:39.718Z,99.90
2018-05-24T19:18:07.390Z,99.90
2018-05-24T19:20:34.937Z,99.90
2018-05-24T19:23:02.658Z,99.90
2018-05-24T19:25:30.273Z,99.90
2018-05-24T19:27:58.014Z,99.90
2018-05-24T19:30:25.546Z,99.90
2018-05-24T19:32:53.225Z,99.90
2018-05-24T19:35:20.776Z,99.90
2018-05-24T19:37:48.455Z,99.90
2018-05-24T19:40:16.098Z,99.90
2018-05-24T19:42:43.747Z,99.90
2018-05-24T19:45:11.266Z,99.90
2018-05-24T19:47:38.813Z,99.90
2018-05-24T19:50:06.349Z,99.90
2018-05-24T19:52:33.940Z,99.90
2018-05-24T19:55:02.309Z,99.90
2018-05-24T19:57:29.877Z,99.90
2018-05-24T19:59:57.687Z,99.90
2018-05-24T20:02:25.225Z,99.90
2018-05-24T20:04:52.832Z,99.90
2018-05-24T20:07:20.360Z,99.90
2018-05-24T20:09:47.963Z,99.90
2018-05-24T20:12:15.529Z,99.90
2018-05-24T20:14:43.099Z,99.90
2018-05-24T20:17:11.507Z,99.90
2018-05-24T20:19:39.366Z,99.90
2018-05-24T20:22:06.929Z,99.90
2018-05-24T20:24:34.469Z,99.90
2018-05-24T20:27:02.169Z,99.90
2018-05-24T20:29:29.711Z,99.90
2018-05-24T20:31:57.390Z,99.90
2018-05-24T20:34:24.929Z,99.90
2018-05-24T20:36:52.585Z,99.90
2018-05-24T20:39:20.190Z,99.90
2018-05-24T20:41:47.757Z,99.90
2018-05-24T20:44:15.432Z,99.90
2018-05-24T20:46:43.741Z,99.90
2018-05-24T20:49:11.297Z,99.90
2018-05-24T20:51:38.967Z,99.90
2018-05-24T20:54:06.617Z,99.90
2018-05-24T20:56:34.204Z,99.90
2018-05-24T20:59:01.939Z,99.90
2018-05-24T21:01:29.456Z,99.90
2018-05-24T21:03:57.995Z,99.90
2018-05-24T21:06:25.530Z,99.90
2018-05-24T21:08:53.127Z,99.90
2018-05-24T21:11:20.736Z,99.90
2018-05-24T21:13:48.296Z,99.90
2018-05-24T21:16:15.829Z,99.90
2018-05-24T21:18:44.309Z,99.90
2018-05-24T21:21:12.622Z,99.90
2018-05-24T21:23:40.201Z,99.90
2018-05-24T21:26:07.737Z,99.90
2018-05-24T21:28:35.323Z,99.90
2018-05-24T21:31:02.964Z,99.90
2018-05-24T21:33:30.621Z,99.90
2018-05-24T21:35:58.197Z,99.90
2018-05-24T21:38:25.720Z,99.90
2018-05-24T21:40:53.261Z,99.90
2018-05-24T21:43:21.587Z,99.90
2018-05-24T21:45:49.154Z,99.90
2018-05-24T21:48:16.730Z,99.90
2018-05-24T21:50:44.348Z,99.90
2018-05-24T21:53:11.913Z,99.90
2018-05-24T21:55:39.429Z,99.90
2018-05-24T21:58:07.944Z,99.90
2018-05-24T22:00:35.473Z,99.90
2018-05-24T22:03:03.864Z,99.90
2018-05-24T22:05:31.398Z,99.90
2018-05-24T22:07:59.741Z,99.90
2018-05-24T22:10:27.289Z,99.90
2018-05-24T22:12:54.832Z,99.90
2018-05-24T22:15:22.429Z,99.90
2018-05-24T22:17:50.146Z,99.90
2018-05-24T22:20:17.697Z,99.90
2018-05-24T22:22:45.277Z,99.90
2018-05-24T22:25:12.825Z,99.90
2018-05-24T22:27:40.508Z,99.90
2018-05-24T22:30:08.089Z,99.90
2018-05-24T22:32:35.636Z,99.90
2018-05-24T22:35:03.325Z,99.90
2018-05-24T22:37:31.633Z,99.90
2018-05-24T22:39:59.173Z,99.90
2018-05-24T22:42:26.821Z,99.90
2018-05-24T22:44:55.133Z,99.90
2018-05-24T22:47:22.690Z,99.90
2018-05-24T22:49:50.258Z,99.90
2018-05-24T22:52:17.883Z,99.90
2018-05-24T22:54:46.287Z,99.90
2018-05-24T22:57:13.872Z,99.90
2018-05-24T22:59:41.434Z,99.90
2018-05-24T23:02:08.984Z,99.90
2018-05-24T23:04:36.536Z,99.90
2018-05-24T23:07:04.063Z,99.90
2018-05-24T23:09:31.637Z,99.90
2018-05-24T23:11:59.213Z,99.90
2018-05-24T23:14:26.773Z,99.90
2018-05-24T23:16:54.383Z,99.90
2018-05-24T23:19:22.877Z,99.90
2018-05-24T23:21:51.375Z,99.90
2018-05-24T23:24:18.932Z,99.90
2018-05-24T23:26:46.490Z,99.90
2018-05-24T23:29:14.029Z,99.90
2018-05-24T23:31:41.658Z,99.90
2018-05-24T23:34:10.017Z,99.90
2018-05-24T23:36:37.625Z,99.90
2018-05-24T23:39:05.305Z,99.90
2018-05-24T23:41:32.931Z,99.90
2018-05-24T23:44:01.299Z,99.90
2018-05-24T23:46:28.881Z,99.90
2018-05-24T23:48:56.348Z,99.90
2018-05-24T23:51:23.945Z,99.90
2018-05-24T23:53:51.511Z,99.90
2018-05-24T23:56:19.138Z,99.90
2018-05-24T23:58:46.700Z,99.90
